sensor_id;sensor_type;location;lat;lon;timestamp;pressure;altitude;pressure_sealevel;temperature;humidity
54455;BME280;40364;52.270;10.546;2023-02-12T00:01:14;102585.31;;;13.00;100.00
54455;BME280;40364;52.270;10.546;2023-02-12T00:03:40;102581.25;;;13.20;100.00
54455;BME280;40364;52.270;10.546;2023-02-12T00:06:08;102583.53;;;13.18;100.00
54455;BME280;40364;52.270;10.546;2023-02-12T00:08:37;102580.31;;;13.10;100.00
54455;BME280;40364;52.270;10.546;2023-02-12T00:11:09;102582.81;;;12.71;100.00
54455;BME280;40364;52.270;10.546;2023-02-12T00:13:36;102584.47;;;12.99;100.00
54455;BME280;40364;52.270;10.546;2023-02-12T00:16:04;102587.38;;;13.08;100.00
54455;BME280;40364;52.270;10.546;2023-02-12T00:18:31;102587.69;;;13.34;100.00
54455;BME280;40364;52.270;10.546;2023-02-12T00:20:58;102583.63;;;13.40;100.00
54455;BME280;40364;52.270;10.546;2023-02-12T00:23:25;102589.66;;;12.92;100.00
54455;BME280;40364;52.270;10.546;2023-02-12T00:25:53;102576.78;;;12.91;100.00
54455;BME280;40364;52.270;10.546;2023-02-12T00:28:20;102592.66;;;13.37;100.00
54455;BME280;40364;52.270;10.546;2023-02-12T00:30:47;102588.00;;;13.19;100.00
54455;BME280;40364;52.270;10.546;2023-02-12T00:33:14;102597.53;;;13.18;100.00
54455;BME280;40364;52.270;10.546;2023-02-12T00:35:40;102598.88;;;13.20;100.00
54455;BME280;40364;52.270;10.546;2023-02-12T00:38:07;102599.72;;;13.21;100.00
54455;BME280;40364;52.270;10.546;2023-02-12T00:40:33;102595.66;;;13.27;100.00
54455;BME280;40364;52.270;10.546;2023-02-12T00:43:02;102597.84;;;13.30;100.00
54455;BME280;40364;52.270;10.546;2023-02-12T00:45:28;102594.94;;;13.35;100.00
54455;BME280;40364;52.270;10.546;2023-02-12T00:47:55;102606.44;;;13.33;100.00
54455;BME280;40364;52.270;10.546;2023-02-12T00:50:21;102608.63;;;13.23;100.00
54455;BME280;40364;52.270;10.546;2023-02-12T00:52:48;102612.00;;;12.65;100.00
54455;BME280;40364;52.270;10.546;2023-02-12T00:55:15;102615.03;;;12.22;100.00
54455;BME280;40364;52.270;10.546;2023-02-12T00:57:42;102612.22;;;12.22;100.00
54455;BME280;40364;52.270;10.546;2023-02-12T01:00:11;102619.25;;;12.52;100.00
54455;BME280;40364;52.270;10.546;2023-02-12T01:02:38;102610.63;;;12.48;100.00
54455;BME280;40364;52.270;10.546;2023-02-12T01:05:06;102613.97;;;12.64;100.00
54455;BME280;40364;52.270;10.546;2023-02-12T01:07:33;102618.44;;;12.93;100.00
54455;BME280;40364;52.270;10.546;2023-02-12T01:10:00;102620.13;;;12.80;100.00
54455;BME280;40364;52.270;10.546;2023-02-12T01:12:26;102617.84;;;13.23;100.00
54455;BME280;40364;52.270;10.546;2023-02-12T01:14:53;102625.78;;;12.89;100.00
54455;BME280;40364;52.270;10.546;2023-02-12T01:17:21;102625.50;;;11.79;100.00
54455;BME280;40364;52.270;10.546;2023-02-12T01:19:48;102628.78;;;12.65;100.00
54455;BME280;40364;52.270;10.546;2023-02-12T01:22:14;102627.06;;;12.96;100.00
54455;BME280;40364;52.270;10.546;2023-02-12T01:24:41;102623.09;;;13.52;100.00
54455;BME280;40364;52.270;10.546;2023-02-12T01:27:08;102636.44;;;13.69;100.00
54455;BME280;40364;52.270;10.546;2023-02-12T01:29:35;102622.88;;;13.48;100.00
54455;BME280;40364;52.270;10.546;2023-02-12T01:32:04;102621.69;;;13.27;100.00
54455;BME280;40364;52.270;10.546;2023-02-12T01:34:32;102619.03;;;13.58;100.00
54455;BME280;40364;52.270;10.546;2023-02-12T01:36:58;102615.03;;;13.37;100.00
54455;BME280;40364;52.270;10.546;2023-02-12T01:39:25;102621.00;;;13.94;100.00
54455;BME280;40364;52.270;10.546;2023-02-12T01:41:52;102612.47;;;13.27;100.00
54455;BME280;40364;52.270;10.546;2023-02-12T01:44:20;102621.47;;;13.24;100.00
54455;BME280;40364;52.270;10.546;2023-02-12T01:46:49;102620.00;;;13.76;100.00
54455;BME280;40364;52.270;10.546;2023-02-12T01:49:18;102617.50;;;13.52;100.00
54455;BME280;40364;52.270;10.546;2023-02-12T01:51:51;102621.84;;;13.58;100.00
54455;BME280;40364;52.270;10.546;2023-02-12T01:54:21;102618.44;;;13.47;100.00
54455;BME280;40364;52.270;10.546;2023-02-12T01:56:50;102621.47;;;13.24;100.00
54455;BME280;40364;52.270;10.546;2023-02-12T01:59:18;102630.47;;;13.07;100.00
54455;BME280;40364;52.270;10.546;2023-02-12T02:01:45;102622.78;;;12.85;100.00
54455;BME280;40364;52.270;10.546;2023-02-12T02:04:14;102620.72;;;12.91;100.00
54455;BME280;40364;52.270;10.546;2023-02-12T02:06:47;102611.34;;;12.54;100.00
54455;BME280;40364;52.270;10.546;2023-02-12T02:09:17;102608.09;;;13.21;100.00
54455;BME280;40364;52.270;10.546;2023-02-12T02:11:44;102606.97;;;13.35;100.00
54455;BME280;40364;52.270;10.546;2023-02-12T02:14:28;102616.03;;;12.12;100.00
54455;BME280;40364;52.270;10.546;2023-02-12T02:17:22;102608.03;;;12.38;100.00
54455;BME280;40364;52.270;10.546;2023-02-12T02:20:12;102616.09;;;13.41;100.00
54455;BME280;40364;52.270;10.546;2023-02-12T02:22:50;102616.06;;;12.86;100.00
54455;BME280;40364;52.270;10.546;2023-02-12T02:25:38;102618.06;;;12.07;100.00
54455;BME280;40364;52.270;10.546;2023-02-12T02:28:27;102614.84;;;13.06;100.00
54455;BME280;40364;52.270;10.546;2023-02-12T02:31:03;102610.59;;;13.08;100.00
54455;BME280;40364;52.270;10.546;2023-02-12T02:33:38;102614.66;;;13.66;100.00
54455;BME280;40364;52.270;10.546;2023-02-12T02:36:22;102613.72;;;13.70;100.00
54455;BME280;40364;52.270;10.546;2023-02-12T02:38:53;102613.28;;;13.13;100.00
54455;BME280;40364;52.270;10.546;2023-02-12T02:41:27;102613.50;;;13.31;100.00
54455;BME280;40364;52.270;10.546;2023-02-12T02:43:57;102608.84;;;13.26;100.00
54455;BME280;40364;52.270;10.546;2023-02-12T02:46:31;102611.31;;;13.00;100.00
54455;BME280;40364;52.270;10.546;2023-02-12T02:49:01;102620.38;;;12.51;100.00
54455;BME280;40364;52.270;10.546;2023-02-12T02:51:32;102622.25;;;12.69;100.00
54455;BME280;40364;52.270;10.546;2023-02-12T02:54:04;102621.84;;;13.58;100.00
54455;BME280;40364;52.270;10.546;2023-02-12T02:56:34;102631.56;;;12.51;100.00
54455;BME280;40364;52.270;10.546;2023-02-12T02:59:05;102626.66;;;13.44;100.00
54455;BME280;40364;52.270;10.546;2023-02-12T03:01:37;102633.69;;;13.14;100.00
54455;BME280;40364;52.270;10.546;2023-02-12T03:04:07;102628.41;;;13.26;100.00
54455;BME280;40364;52.270;10.546;2023-02-12T03:06:40;102633.09;;;13.31;100.00
54455;BME280;40364;52.270;10.546;2023-02-12T03:09:14;102625.94;;;13.11;100.00
54455;BME280;40364;52.270;10.546;2023-02-12T03:11:42;102644.47;;;13.21;100.00
54455;BME280;40364;52.270;10.546;2023-02-12T03:14:12;102644.41;;;12.52;100.00
54455;BME280;40364;52.270;10.546;2023-02-12T03:16:48;102642.41;;;13.12;100.00
54455;BME280;40364;52.270;10.546;2023-02-12T03:19:18;102640.09;;;12.87;100.00
54455;BME280;40364;52.270;10.546;2023-02-12T03:21:47;102641.78;;;13.15;100.00
54455;BME280;40364;52.270;10.546;2023-02-12T03:24:20;102646.72;;;13.60;100.00
54455;BME280;40364;52.270;10.546;2023-02-12T03:26:52;102649.25;;;13.06;100.00
54455;BME280;40364;52.270;10.546;2023-02-12T03:29:21;102646.63;;;12.36;100.00
54455;BME280;40364;52.270;10.546;2023-02-12T03:31:59;102652.94;;;12.88;100.00
54455;BME280;40364;52.270;10.546;2023-02-12T03:34:35;102654.03;;;12.60;100.00
54455;BME280;40364;52.270;10.546;2023-02-12T03:37:10;102647.38;;;12.23;100.00
54455;BME280;40364;52.270;10.546;2023-02-12T03:39:45;102656.13;;;12.35;100.00
54455;BME280;40364;52.270;10.546;2023-02-12T03:42:17;102649.50;;;12.31;100.00
54455;BME280;40364;52.270;10.546;2023-02-12T03:44:52;102658.56;;;12.42;100.00
54455;BME280;40364;52.270;10.546;2023-02-12T03:47:24;102660.94;;;12.95;100.00
54455;BME280;40364;52.270;10.546;2023-02-12T03:49:59;102664.81;;;12.53;100.00
54455;BME280;40364;52.270;10.546;2023-02-12T03:52:29;102664.00;;;12.33;100.00
54455;BME280;40364;52.270;10.546;2023-02-12T03:54:56;102671.72;;;12.55;100.00
54455;BME280;40364;52.270;10.546;2023-02-12T03:57:25;102671.09;;;12.44;100.00
54455;BME280;40364;52.270;10.546;2023-02-12T03:59:55;102669.31;;;11.97;100.00
54455;BME280;40364;52.270;10.546;2023-02-12T04:02:23;102669.88;;;12.64;100.00
54455;BME280;40364;52.270;10.546;2023-02-12T04:04:50;102660.66;;;12.50;100.00
54455;BME280;40364;52.270;10.546;2023-02-12T04:07:17;102667.41;;;12.63;100.00
54455;BME280;40364;52.270;10.546;2023-02-12T04:09:44;102673.78;;;11.98;100.00
54455;BME280;40364;52.270;10.546;2023-02-12T04:12:30;102676.13;;;12.75;100.00
54455;BME280;40364;52.270;10.546;2023-02-12T04:15:10;102678.16;;;12.04;100.00
54455;BME280;40364;52.270;10.546;2023-02-12T04:17:50;102679.91;;;12.19;100.00
54455;BME280;40364;52.270;10.546;2023-02-12T04:20:26;102675.97;;;12.53;100.00
54455;BME280;40364;52.270;10.546;2023-02-12T04:23:06;102692.34;;;13.05;100.00
54455;BME280;40364;52.270;10.546;2023-02-12T04:25:44;102682.94;;;12.36;100.00
54455;BME280;40364;52.270;10.546;2023-02-12T04:28:25;102689.38;;;12.37;100.00
54455;BME280;40364;52.270;10.546;2023-02-12T04:30:56;102696.59;;;11.87;100.00
54455;BME280;40364;52.270;10.546;2023-02-12T04:33:31;102700.88;;;11.98;100.00
54455;BME280;40364;52.270;10.546;2023-02-12T04:36:02;102694.75;;;11.77;100.00
54455;BME280;40364;52.270;10.546;2023-02-12T04:38:35;102698.63;;;12.00;100.00
54455;BME280;40364;52.270;10.546;2023-02-12T04:41:04;102704.50;;;11.79;100.00
54455;BME280;40364;52.270;10.546;2023-02-12T04:43:33;102701.38;;;12.70;100.00
54455;BME280;40364;52.270;10.546;2023-02-12T04:45:59;102700.81;;;13.00;100.00
54455;BME280;40364;52.270;10.546;2023-02-12T04:48:27;102703.25;;;13.48;100.00
54455;BME280;40364;52.270;10.546;2023-02-12T04:50:54;102704.41;;;13.61;100.00
54455;BME280;40364;52.270;10.546;2023-02-12T04:53:21;102711.13;;;14.09;100.00
54455;BME280;40364;52.270;10.546;2023-02-12T04:55:48;102714.13;;;13.63;100.00
54455;BME280;40364;52.270;10.546;2023-02-12T04:58:15;102719.75;;;13.49;100.00
54455;BME280;40364;52.270;10.546;2023-02-12T05:00:42;102722.03;;;12.04;100.00
54455;BME280;40364;52.270;10.546;2023-02-12T05:03:09;102716.75;;;11.60;100.00
54455;BME280;40364;52.270;10.546;2023-02-12T05:05:37;102715.28;;;12.42;100.00
54455;BME280;40364;52.270;10.546;2023-02-12T05:08:04;102709.25;;;12.35;100.00
54455;BME280;40364;52.270;10.546;2023-02-12T05:10:30;102706.91;;;12.24;100.00
54455;BME280;40364;52.270;10.546;2023-02-12T05:12:57;102704.19;;;12.37;100.00
54455;BME280;40364;52.270;10.546;2023-02-12T05:15:24;102712.09;;;12.30;100.00
54455;BME280;40364;52.270;10.546;2023-02-12T05:17:50;102701.97;;;12.53;100.00
54455;BME280;40364;52.270;10.546;2023-02-12T05:20:17;102705.06;;;12.52;100.00
54455;BME280;40364;52.270;10.546;2023-02-12T05:22:45;102707.97;;;12.09;100.00
54455;BME280;40364;52.270;10.546;2023-02-12T05:25:16;102710.78;;;11.90;100.00
54455;BME280;40364;52.270;10.546;2023-02-12T05:27:43;102721.25;;;11.79;100.00
54455;BME280;40364;52.270;10.546;2023-02-12T05:30:10;102719.13;;;11.47;100.00
54455;BME280;40364;52.270;10.546;2023-02-12T05:32:37;102723.16;;;11.60;100.00
54455;BME280;40364;52.270;10.546;2023-02-12T05:35:04;102729.66;;;12.17;100.00
54455;BME280;40364;52.270;10.546;2023-02-12T05:37:33;102728.28;;;12.33;100.00
54455;BME280;40364;52.270;10.546;2023-02-12T05:40:03;102734.25;;;12.78;100.00
54455;BME280;40364;52.270;10.546;2023-02-12T05:42:29;102730.09;;;12.43;100.00
54455;BME280;40364;52.270;10.546;2023-02-12T05:44:56;102731.25;;;12.88;100.00
54455;BME280;40364;52.270;10.546;2023-02-12T05:47:23;102733.00;;;13.17;100.00
54455;BME280;40364;52.270;10.546;2023-02-12T05:49:50;102736.47;;;12.62;100.00
54455;BME280;40364;52.270;10.546;2023-02-12T05:52:16;102739.25;;;12.95;100.00
54455;BME280;40364;52.270;10.546;2023-02-12T05:54:43;102744.44;;;13.61;100.00
54455;BME280;40364;52.270;10.546;2023-02-12T05:57:11;102748.53;;;14.05;100.00
54455;BME280;40364;52.270;10.546;2023-02-12T05:59:38;102744.53;;;13.70;100.00
54455;BME280;40364;52.270;10.546;2023-02-12T06:02:04;102751.78;;;13.57;100.00
54455;BME280;40364;52.270;10.546;2023-02-12T06:04:31;102746.50;;;13.69;100.00
54455;BME280;40364;52.270;10.546;2023-02-12T06:06:59;102757.16;;;13.81;100.00
54455;BME280;40364;52.270;10.546;2023-02-12T06:09:26;102747.91;;;13.12;100.00
54455;BME280;40364;52.270;10.546;2023-02-12T06:11:52;102746.50;;;13.42;100.00
54455;BME280;40364;52.270;10.546;2023-02-12T06:14:20;102755.81;;;13.78;100.00
54455;BME280;40364;52.270;10.546;2023-02-12T06:16:49;102754.69;;;13.66;100.00
54455;BME280;40364;52.270;10.546;2023-02-12T06:19:17;102753.84;;;13.93;100.00
54455;BME280;40364;52.270;10.546;2023-02-12T06:21:44;102753.88;;;13.38;100.00
54455;BME280;40364;52.270;10.546;2023-02-12T06:24:11;102754.97;;;13.78;100.00
54455;BME280;40364;52.270;10.546;2023-02-12T06:26:38;102752.47;;;13.90;100.00
54455;BME280;40364;52.270;10.546;2023-02-12T06:29:05;102752.50;;;13.63;100.00
54455;BME280;40364;52.270;10.546;2023-02-12T06:31:35;102758.44;;;13.75;100.00
54455;BME280;40364;52.270;10.546;2023-02-12T06:34:03;102752.59;;;13.85;100.00
54455;BME280;40364;52.270;10.546;2023-02-12T06:36:30;102759.38;;;14.20;100.00
54455;BME280;40364;52.270;10.546;2023-02-12T06:38:59;102755.00;;;13.51;100.00
54455;BME280;40364;52.270;10.546;2023-02-12T06:41:26;102764.94;;;13.84;100.00
54455;BME280;40364;52.270;10.546;2023-02-12T06:43:53;102765.44;;;14.00;100.00
54455;BME280;40364;52.270;10.546;2023-02-12T06:46:20;102765.81;;;14.07;100.00
54455;BME280;40364;52.270;10.546;2023-02-12T06:48:52;102770.88;;;14.32;100.00
54455;BME280;40364;52.270;10.546;2023-02-12T06:51:19;102771.84;;;14.14;100.00
54455;BME280;40364;52.270;10.546;2023-02-12T06:53:48;102776.81;;;14.17;100.00
54455;BME280;40364;52.270;10.546;2023-02-12T06:56:15;102776.69;;;13.59;100.00
54455;BME280;40364;52.270;10.546;2023-02-12T06:58:43;102782.53;;;14.26;100.00
54455;BME280;40364;52.270;10.546;2023-02-12T07:01:13;102779.78;;;13.98;100.00
54455;BME280;40364;52.270;10.546;2023-02-12T07:03:42;102788.75;;;14.23;100.00
54455;BME280;40364;52.270;10.546;2023-02-12T07:06:11;102783.88;;;14.28;100.00
54455;BME280;40364;52.270;10.546;2023-02-12T07:08:38;102782.31;;;14.22;100.00
54455;BME280;40364;52.270;10.546;2023-02-12T07:11:05;102785.22;;;14.17;100.00
54455;BME280;40364;52.270;10.546;2023-02-12T07:13:32;102783.56;;;14.16;100.00
54455;BME280;40364;52.270;10.546;2023-02-12T07:16:02;102789.34;;;13.10;100.00
54455;BME280;40364;52.270;10.546;2023-02-12T07:18:29;102792.97;;;13.70;100.00
54455;BME280;40364;52.270;10.546;2023-02-12T07:20:56;102806.66;;;13.86;100.00
54455;BME280;40364;52.270;10.546;2023-02-12T07:23:24;102801.41;;;14.20;100.00
54455;BME280;40364;52.270;10.546;2023-02-12T07:25:54;102798.59;;;14.70;100.00
54455;BME280;40364;52.270;10.546;2023-02-12T07:28:21;102794.31;;;14.00;100.00
54455;BME280;40364;52.270;10.546;2023-02-12T07:30:48;102796.81;;;13.74;100.00
54455;BME280;40364;52.270;10.546;2023-02-12T07:33:15;102803.50;;;13.46;100.00
54455;BME280;40364;52.270;10.546;2023-02-12T07:35:42;102809.88;;;13.93;100.00
54455;BME280;40364;52.270;10.546;2023-02-12T07:38:09;102804.78;;;13.07;100.00
54455;BME280;40364;52.270;10.546;2023-02-12T07:40:37;102805.22;;;13.74;100.00
54455;BME280;40364;52.270;10.546;2023-02-12T07:43:03;102817.13;;;13.39;100.00
54455;BME280;40364;52.270;10.546;2023-02-12T07:45:30;102813.88;;;13.45;100.00
54455;BME280;40364;52.270;10.546;2023-02-12T07:47:57;102812.44;;;13.34;100.00
54455;BME280;40364;52.270;10.546;2023-02-12T07:50:23;102812.91;;;13.23;100.00
54455;BME280;40364;52.270;10.546;2023-02-12T07:52:50;102828.53;;;13.83;100.00
54455;BME280;40364;52.270;10.546;2023-02-12T07:55:17;102816.09;;;13.62;100.00
54455;BME280;40364;52.270;10.546;2023-02-12T07:57:45;102822.50;;;13.76;100.00
54455;BME280;40364;52.270;10.546;2023-02-12T08:00:13;102832.38;;;13.88;100.00
54455;BME280;40364;52.270;10.546;2023-02-12T08:02:40;102825.66;;;14.02;100.00
54455;BME280;40364;52.270;10.546;2023-02-12T08:05:07;102828.03;;;13.95;100.00
54455;BME280;40364;52.270;10.546;2023-02-12T08:07:34;102835.91;;;13.66;100.00
54455;BME280;40364;52.270;10.546;2023-02-12T08:10:00;102842.53;;;14.11;100.00
54455;BME280;40364;52.270;10.546;2023-02-12T08:12:27;102833.84;;;13.71;100.00
54455;BME280;40364;52.270;10.546;2023-02-12T08:14:55;102834.25;;;13.78;100.00
54455;BME280;40364;52.270;10.546;2023-02-12T08:17:22;102833.84;;;13.85;100.00
54455;BME280;40364;52.270;10.546;2023-02-12T08:19:49;102825.75;;;13.70;100.00
54455;BME280;40364;52.270;10.546;2023-02-12T08:22:15;102826.75;;;14.15;100.00
54455;BME280;40364;52.270;10.546;2023-02-12T08:24:43;102825.53;;;13.94;100.00
54455;BME280;40364;52.270;10.546;2023-02-12T08:27:09;102837.16;;;14.01;100.00
54455;BME280;40364;52.270;10.546;2023-02-12T08:29:36;102836.13;;;13.97;100.00
54455;BME280;40364;52.270;10.546;2023-02-12T08:32:04;102830.81;;;13.81;100.00
54455;BME280;40364;52.270;10.546;2023-02-12T08:34:35;102840.25;;;14.13;100.00
54455;BME280;40364;52.270;10.546;2023-02-12T08:37:04;102834.72;;;14.71;100.00
54455;BME280;40364;52.270;10.546;2023-02-12T08:39:31;102836.72;;;14.21;100.00
54455;BME280;40364;52.270;10.546;2023-02-12T08:41:58;102848.16;;;13.83;100.00
54455;BME280;40364;52.270;10.546;2023-02-12T08:44:25;102851.06;;;14.06;100.00
54455;BME280;40364;52.270;10.546;2023-02-12T08:46:52;102850.44;;;13.95;100.00
54455;BME280;40364;52.270;10.546;2023-02-12T08:49:23;102851.44;;;13.58;100.00
54455;BME280;40364;52.270;10.546;2023-02-12T08:51:51;102859.25;;;13.61;100.00
54455;BME280;40364;52.270;10.546;2023-02-12T08:54:20;102850.44;;;13.68;100.00
54455;BME280;40364;52.270;10.546;2023-02-12T08:56:48;102860.41;;;14.01;100.00
54455;BME280;40364;52.270;10.546;2023-02-12T08:59:15;102857.16;;;13.21;100.00
54455;BME280;40364;52.270;10.546;2023-02-12T09:01:43;102865.69;;;13.75;100.00
54455;BME280;40364;52.270;10.546;2023-02-12T09:04:13;102867.94;;;14.56;100.00
54455;BME280;40364;52.270;10.546;2023-02-12T09:06:44;102878.03;;;16.65;88.41
54455;BME280;40364;52.270;10.546;2023-02-12T09:09:11;102877.63;;;15.08;97.43
54455;BME280;40364;52.270;10.546;2023-02-12T09:11:38;102877.78;;;14.39;100.00
54455;BME280;40364;52.270;10.546;2023-02-12T09:14:07;102886.75;;;14.55;100.00
54455;BME280;40364;52.270;10.546;2023-02-12T09:16:35;102884.94;;;15.40;96.03
54455;BME280;40364;52.270;10.546;2023-02-12T09:19:03;102888.94;;;14.44;100.00
54455;BME280;40364;52.270;10.546;2023-02-12T09:21:30;102887.72;;;14.73;98.82
54455;BME280;40364;52.270;10.546;2023-02-12T09:23:59;102890.06;;;14.93;100.00
54455;BME280;40364;52.270;10.546;2023-02-12T09:26:26;102897.44;;;15.34;95.90
54455;BME280;40364;52.270;10.546;2023-02-12T09:28:53;102885.59;;;14.92;95.92
54455;BME280;40364;52.270;10.546;2023-02-12T09:31:22;102899.47;;;14.75;98.60
54455;BME280;40364;52.270;10.546;2023-02-12T09:33:51;102893.53;;;14.76;97.12
54455;BME280;40364;52.270;10.546;2023-02-12T09:36:18;102901.28;;;14.43;100.00
54455;BME280;40364;52.270;10.546;2023-02-12T09:38:45;102902.66;;;15.71;88.37
54455;BME280;40364;52.270;10.546;2023-02-12T09:44:16;102904.22;;;14.88;95.45
54455;BME280;40364;52.270;10.546;2023-02-12T09:46:48;102908.44;;;13.95;100.00
54455;BME280;40364;52.270;10.546;2023-02-12T09:49:24;102914.63;;;14.74;100.00
54455;BME280;40364;52.270;10.546;2023-02-12T09:51:57;102913.75;;;14.65;98.85
54455;BME280;40364;52.270;10.546;2023-02-12T09:54:28;102909.13;;;15.05;95.58
54455;BME280;40364;52.270;10.546;2023-02-12T09:57:05;102916.41;;;15.06;96.62
54455;BME280;40364;52.270;10.546;2023-02-12T09:59:42;102906.75;;;14.98;94.48
54455;BME280;40364;52.270;10.546;2023-02-12T10:02:11;102905.00;;;13.70;100.00
54455;BME280;40364;52.270;10.546;2023-02-12T10:04:40;102908.94;;;13.69;100.00
54455;BME280;40364;52.270;10.546;2023-02-12T10:07:18;102909.13;;;13.27;100.00
54455;BME280;40364;52.270;10.546;2023-02-12T10:10:02;102910.50;;;13.89;100.00
54455;BME280;40364;52.270;10.546;2023-02-12T10:12:36;102916.09;;;15.52;98.92
54455;BME280;40364;52.270;10.546;2023-02-12T10:15:14;102908.97;;;13.97;100.00
54455;BME280;40364;52.270;10.546;2023-02-12T10:17:47;102914.78;;;14.41;97.21
54455;BME280;40364;52.270;10.546;2023-02-12T10:20:43;102925.94;;;13.59;100.00
54455;BME280;40364;52.270;10.546;2023-02-12T10:23:28;102918.28;;;13.78;100.00
54455;BME280;40364;52.270;10.546;2023-02-12T10:26:02;102921.13;;;14.20;100.00
54455;BME280;40364;52.270;10.546;2023-02-12T10:28:37;102931.63;;;14.55;96.87
54455;BME280;40364;52.270;10.546;2023-02-12T10:31:08;102913.22;;;14.08;100.00
54455;BME280;40364;52.270;10.546;2023-02-12T10:33:40;102918.78;;;13.80;100.00
54455;BME280;40364;52.270;10.546;2023-02-12T10:36:17;102924.31;;;13.86;100.00
54455;BME280;40364;52.270;10.546;2023-02-12T10:38:49;102924.75;;;14.20;100.00
54455;BME280;40364;52.270;10.546;2023-02-12T10:41:18;102928.50;;;14.57;99.96
54455;BME280;40364;52.270;10.546;2023-02-12T10:43:46;102929.63;;;14.56;100.00
54455;BME280;40364;52.270;10.546;2023-02-12T10:46:14;102917.81;;;13.44;100.00
54455;BME280;40364;52.270;10.546;2023-02-12T10:48:43;102929.56;;;13.60;100.00
54455;BME280;40364;52.270;10.546;2023-02-12T10:51:24;102929.81;;;13.91;100.00
54455;BME280;40364;52.270;10.546;2023-02-12T10:53:54;102933.06;;;14.25;100.00
54455;BME280;40364;52.270;10.546;2023-02-12T10:56:21;102934.09;;;14.29;100.00
54455;BME280;40364;52.270;10.546;2023-02-12T10:58:54;102928.59;;;14.52;100.00
54455;BME280;40364;52.270;10.546;2023-02-12T11:01:24;102931.91;;;14.67;100.00
54455;BME280;40364;52.270;10.546;2023-02-12T11:03:52;102924.03;;;14.28;100.00
54455;BME280;40364;52.270;10.546;2023-02-12T11:06:21;102932.22;;;14.38;100.00
54455;BME280;40364;52.270;10.546;2023-02-12T11:08:48;102926.22;;;14.59;100.00
54455;BME280;40364;52.270;10.546;2023-02-12T11:11:19;102935.00;;;14.38;100.00
54455;BME280;40364;52.270;10.546;2023-02-12T11:13:55;102923.91;;;14.20;100.00
54455;BME280;40364;52.270;10.546;2023-02-12T11:16:31;102924.31;;;14.68;100.00
54455;BME280;40364;52.270;10.546;2023-02-12T11:19:00;102923.19;;;14.41;100.00
54455;BME280;40364;52.270;10.546;2023-02-12T11:21:29;102920.16;;;14.38;100.00
54455;BME280;40364;52.270;10.546;2023-02-12T11:23:56;102922.25;;;14.19;100.00
54455;BME280;40364;52.270;10.546;2023-02-12T11:26:26;102921.75;;;14.58;99.18
54455;BME280;40364;52.270;10.546;2023-02-12T11:28:57;102919.47;;;14.60;100.00
54455;BME280;40364;52.270;10.546;2023-02-12T11:31:25;102918.31;;;14.47;100.00
54455;BME280;40364;52.270;10.546;2023-02-12T11:34:11;102905.75;;;14.44;100.00
54455;BME280;40364;52.270;10.546;2023-02-12T11:36:41;102904.63;;;14.45;100.00
54455;BME280;40364;52.270;10.546;2023-02-12T11:39:17;102899.41;;;14.53;100.00
54455;BME280;40364;52.270;10.546;2023-02-12T11:41:49;102896.50;;;13.75;100.00
54455;BME280;40364;52.270;10.546;2023-02-12T11:44:20;102897.47;;;13.38;100.00
54455;BME280;40364;52.270;10.546;2023-02-12T11:46:49;102895.66;;;15.60;90.57
54455;BME280;40364;52.270;10.546;2023-02-12T11:49:20;102894.81;;;15.82;87.68
54455;BME280;40364;52.270;10.546;2023-02-12T11:51:48;102893.47;;;15.79;85.34
54455;BME280;40364;52.270;10.546;2023-02-12T11:54:19;102892.69;;;16.44;82.02
54455;BME280;40364;52.270;10.546;2023-02-12T11:56:48;102889.03;;;15.11;87.01
54455;BME280;40364;52.270;10.546;2023-02-12T11:59:34;102887.97;;;16.79;81.15
54455;BME280;40364;52.270;10.546;2023-02-12T12:02:13;102889.38;;;14.74;96.31
54455;BME280;40364;52.270;10.546;2023-02-12T12:04:43;102888.50;;;14.65;96.78
54455;BME280;40364;52.270;10.546;2023-02-12T12:07:16;102884.56;;;14.52;95.57
54455;BME280;40364;52.270;10.546;2023-02-12T12:09:50;102879.66;;;15.38;92.26
54455;BME280;40364;52.270;10.546;2023-02-12T12:12:22;102875.13;;;15.06;93.26
54455;BME280;40364;52.270;10.546;2023-02-12T12:14:55;102874.22;;;15.42;88.09
54455;BME280;40364;52.270;10.546;2023-02-12T12:17:45;102877.56;;;15.22;88.60
54455;BME280;40364;52.270;10.546;2023-02-12T12:20:34;102877.53;;;15.44;89.27
54455;BME280;40364;52.270;10.546;2023-02-12T12:23:04;102882.78;;;15.99;85.12
54455;BME280;40364;52.270;10.546;2023-02-12T12:25:36;102879.91;;;15.50;87.27
54455;BME280;40364;52.270;10.546;2023-02-12T12:28:16;102876.63;;;15.26;89.70
54455;BME280;40364;52.270;10.546;2023-02-12T12:31:01;102878.63;;;14.40;96.93
54455;BME280;40364;52.270;10.546;2023-02-12T12:33:34;102878.97;;;14.25;100.00
54455;BME280;40364;52.270;10.546;2023-02-12T12:36:14;102871.72;;;14.73;95.84
54455;BME280;40364;52.270;10.546;2023-02-12T12:38:52;102860.50;;;15.40;91.02
54455;BME280;40364;52.270;10.546;2023-02-12T12:41:22;102877.63;;;15.83;89.04
54455;BME280;40364;52.270;10.546;2023-02-12T12:44:02;102864.09;;;14.52;96.70
54455;BME280;40364;52.270;10.546;2023-02-12T12:46:47;102864.59;;;14.67;93.58
54455;BME280;40364;52.270;10.546;2023-02-12T12:49:50;102858.41;;;15.01;93.50